Time;durP1;ratioP1;P1;durP2;ratioP2;P2;SDS_P1;SDS_P2;PMS_P1;PMS_P2;Temp;Humidity;BMP_temperature;BMP_pressure;BME280_temperature;BME280_humidity;BME280_pressure;Samples;Min_cycle;Max_cycle;Signal;HPM_P1;HPM_P2
2022/01/23 00:02:29;;;;;;;32.42;18.17;;;;;;;4.47;85.13;103466.53;5061659;28;20036;-80
2022/01/23 00:04:54;;;;;;;33.60;18.52;;;;;;;4.47;84.79;103475.97;5060502;28;20105;-81
2022/01/23 00:07:20;;;;;;;30.65;17.42;;;;;;;4.46;84.74;103476.78;5060453;28;20578;-80
2022/01/23 00:09:46;;;;;;;32.30;18.55;;;;;;;4.45;85.07;103467.28;5060571;28;20054;-81
2022/01/23 00:12:19;;;;;;;34.80;18.25;;;;;;;4.46;84.71;103471.63;5061336;28;20286;-80
2022/01/23 00:17:34;;;;;;;33.15;17.85;;;;;;;4.44;84.82;103458.69;5052694;28;20064;-82
2022/01/23 00:20:06;;;;;;;32.85;17.75;;;;;;;4.44;85.06;103461.25;5053070;28;20021;-81
2022/01/23 00:22:38;;;;;;;32.05;18.25;;;;;;;4.45;84.96;103457.84;5053416;28;20017;-82
2022/01/23 00:30:33;;;;;;;30.27;18.02;;;;;;;4.46;84.78;103464.78;5050846;28;20036;-82
2022/01/23 00:33:03;;;;;;;29.77;17.77;;;;;;;4.46;84.69;103446.75;5052337;28;20017;-82
2022/01/23 00:35:30;;;;;;;31.42;17.85;;;;;;;4.45;84.88;103457.84;5052940;28;20028;-81
2022/01/23 00:37:56;;;;;;;33.38;18.48;;;;;;;4.46;84.86;103459.63;5052234;28;20369;-82
2022/01/23 00:40:23;;;;;;;34.13;18.45;;;;;;;4.47;84.89;103452.75;5050887;28;20375;-82
2022/01/23 00:42:48;;;;;;;33.42;18.23;;;;;;;4.48;84.87;103462.25;5059603;28;20375;-81
2022/01/23 00:45:27;;;;;;;32.00;18.38;;;;;;;4.49;84.61;103461.44;5052293;28;20036;-81
2022/01/23 00:48:01;;;;;;;33.95;18.88;;;;;;;4.50;84.57;103461.53;5057933;28;20021;-81
2022/01/23 00:50:29;;;;;;;29.77;17.60;;;;;;;4.50;84.85;103453.78;5053621;28;20024;-81
2022/01/23 00:52:54;;;;;;;30.73;17.73;;;;;;;4.51;84.87;103452.06;5059332;28;20035;-81
2022/01/23 00:55:20;;;;;;;34.80;19.02;;;;;;;4.50;84.35;103453.78;5052912;28;20025;-81
2022/01/23 00:57:45;;;;;;;32.83;18.65;;;;;;;4.51;84.43;103447.81;5052972;28;20112;-82
2022/01/23 01:00:12;;;;;;;32.90;18.63;;;;;;;4.51;84.48;103446.91;5053077;28;20021;-82
2022/01/23 01:02:37;;;;;;;32.97;18.17;;;;;;;4.51;84.47;103447.81;5051585;28;20628;-81
2022/01/23 01:05:03;;;;;;;29.63;17.60;;;;;;;4.50;84.39;103442.59;5052884;28;20124;-82
2022/01/23 01:07:29;;;;;;;30.75;17.02;;;;;;;4.50;84.54;103445.16;5051467;28;20037;-82
2022/01/23 01:09:59;;;;;;;33.80;18.75;;;;;;;4.49;84.53;103445.97;5052700;28;20078;-82
2022/01/23 01:12:29;;;;;;;31.95;17.83;;;;;;;4.47;84.40;103450.19;5050423;28;20037;-82
2022/01/23 01:15:12;;;;;;;29.98;17.75;;;;;;;4.47;84.85;103440.75;5057304;28;20064;-82
2022/01/23 01:33:43;;;;;;;34.40;17.85;;;;;;;4.43;85.44;103463.78;5053201;28;20044;-83
2022/01/23 01:36:37;;;;;;;31.42;17.48;;;;;;;4.43;85.11;103459.50;5051952;28;20025;-81
2022/01/23 01:39:04;;;;;;;27.92;16.17;;;;;;;4.44;85.14;103455.22;5050558;28;20025;-82
2022/01/23 01:41:29;;;;;;;32.53;17.65;;;;;;;4.42;85.11;103457.72;5051342;28;20059;-81
2022/01/23 01:43:56;;;;;;;36.47;19.10;;;;;;;4.42;85.24;103462.00;5062457;28;20021;-81
2022/01/23 01:46:21;;;;;;;27.38;16.73;;;;;;;4.41;85.31;103461.13;5050969;28;20025;-82
2022/01/23 01:48:47;;;;;;;35.33;18.65;;;;;;;4.40;85.26;103462.84;5052062;28;20021;-81
2022/01/23 01:51:16;;;;;;;32.13;17.50;;;;;;;4.42;84.83;103468.03;5049071;28;20468;-82
2022/01/23 01:53:50;;;;;;;26.73;16.33;;;;;;;4.42;85.49;103472.31;5050544;28;20021;-82
2022/01/23 01:56:16;;;;;;;34.13;18.08;;;;;;;4.42;85.20;103469.75;5047135;28;20032;-82
2022/01/23 02:09:33;;;;;;;32.83;17.13;;;;;;;4.39;85.16;103458.50;5050377;28;20090;-81
2022/01/23 02:15:07;;;;;;;29.73;17.77;;;;;;;4.40;84.89;103449.03;5051731;28;20064;-81
2022/01/23 02:55:29;;;;;;;29.00;17.02;;;;;;;4.38;84.86;103423.22;5054394;28;20365;-82
2022/01/23 02:57:58;;;;;;;30.60;17.80;;;;;;;4.38;84.57;103424.91;5051488;28;20059;-82
2022/01/23 03:00:31;;;;;;;30.67;17.45;;;;;;;4.37;84.79;103425.72;5051212;28;20021;-82
2022/01/23 03:03:02;;;;;;;33.17;18.08;;;;;;;4.37;85.18;103418.88;5048010;28;20068;-81
2022/01/23 03:08:05;;;;;;;45.38;23.98;;;;;;;4.40;84.98;103423.28;5051031;28;20120;-82
2022/01/23 03:10:44;;;;;;;52.72;30.30;;;;;;;4.38;84.39;103415.47;5048620;28;20418;-82
2022/01/23 03:26:57;;;;;;;39.20;21.88;;;;;;;4.37;84.96;103436.91;5036384;28;20479;-81
2022/01/23 03:29:25;;;;;;;35.83;20.08;;;;;;;4.37;84.73;103439.50;5048768;28;20025;-81
2022/01/23 03:34:20;;;;;;;33.13;17.70;;;;;;;4.37;84.83;103434.34;5051602;28;20116;-81
2022/01/23 03:36:46;;;;;;;34.30;17.80;;;;;;;4.37;84.69;103434.34;5050427;28;20033;-81
2022/01/23 03:39:12;;;;;;;38.42;18.00;;;;;;;4.38;84.28;103435.22;5048563;28;20025;-81
2022/01/23 03:41:39;;;;;;;31.92;17.52;;;;;;;4.37;84.76;103442.06;5048890;28;20029;-82
2022/01/23 03:44:07;;;;;;;30.42;16.35;;;;;;;4.38;84.79;103443.84;5052175;28;20127;-81
2022/01/23 03:51:51;;;;;;;31.15;17.35;;;;;;;4.39;84.62;103444.69;5047582;28;20118;-82
2022/01/23 03:54:16;;;;;;;29.10;17.38;;;;;;;4.38;84.55;103448.09;5049632;28;20506;-79
2022/01/23 03:56:42;;;;;;;30.33;16.98;;;;;;;4.37;84.60;103448.91;5048240;28;20031;-79
2022/01/23 03:59:07;;;;;;;35.03;16.73;;;;;;;4.36;84.63;103448.03;5048076;28;20533;-79
2022/01/23 04:01:32;;;;;;;28.30;16.80;;;;;;;4.33;84.89;103445.31;5049747;28;20032;-79
2022/01/23 04:04:01;;;;;;;27.80;15.82;;;;;;;4.33;84.42;103453.06;5049740;28;20078;-79
2022/01/23 04:06:27;;;;;;;31.50;15.88;;;;;;;4.32;84.38;103446.16;5048200;28;20112;-79
2022/01/23 04:08:52;;;;;;;29.17;15.20;;;;;;;4.31;84.88;103454.69;5049412;28;20104;-79
2022/01/23 04:11:17;;;;;;;33.25;17.13;;;;;;;4.30;84.65;103455.50;5047878;28;20082;-79
2022/01/23 04:13:57;;;;;;;33.05;16.23;;;;;;;4.30;84.93;103452.94;5049772;28;20040;-79
2022/01/23 04:16:40;;;;;;;29.48;16.00;;;;;;;4.31;84.73;103453.81;5048983;28;20017;-79
2022/01/23 04:19:15;;;;;;;29.42;15.52;;;;;;;4.27;85.31;103452.78;5049664;28;20484;-79
2022/01/23 04:45:44;;;;;;;28.33;14.35;;;;;;;4.29;85.26;103455.44;5052326;28;20106;-79
2022/01/23 05:02:09;;;;;;;24.33;14.32;;;;;;;4.27;85.35;103457.94;5051485;28;20108;-79
2022/01/23 05:04:36;;;;;;;23.27;13.57;;;;;;;4.27;85.27;103457.06;5051506;28;20029;-79
2022/01/23 05:07:08;;;;;;;25.63;14.32;;;;;;;4.26;85.24;103461.38;5049834;28;20470;-79
2022/01/23 05:09:33;;;;;;;25.70;14.13;;;;;;;4.25;85.82;103462.19;5053495;28;20393;-79
2022/01/23 05:12:02;;;;;;;26.90;14.02;;;;;;;4.25;85.48;103465.63;5051551;28;20036;-79
2022/01/23 05:14:34;;;;;;;24.42;13.45;;;;;;;4.26;85.56;103451.06;5051874;28;20021;-79
2022/01/23 05:17:03;;;;;;;24.58;13.40;;;;;;;4.28;85.39;103458.84;5049261;28;20024;-79
2022/01/23 05:19:28;;;;;;;26.73;14.18;;;;;;;4.29;85.03;103458.88;5052250;28;20049;-79
2022/01/23 05:25:08;;;;;;;27.27;14.00;;;;;;;4.26;85.63;103463.94;5029297;28;20036;-79
2022/01/23 05:27:34;;;;;;;;;;;;;;;4.29;85.28;103471.78;5051141;28;20024;-79
2022/01/23 05:30:00;;;;;;;26.00;12.77;;;;;;;4.24;85.42;103463.84;5049253;28;20321;-79
2022/01/23 05:32:32;;;;;;;25.20;13.60;;;;;;;4.23;85.25;103459.50;5050860;28;20017;-79
2022/01/23 05:34:57;;;;;;;25.08;14.32;;;;;;;4.22;85.67;103457.75;5049521;28;20526;-79
2022/01/23 05:37:23;;;;;;;29.85;13.52;;;;;;;4.22;85.58;103462.03;5052381;28;20025;-79
2022/01/23 05:39:48;;;;;;;24.70;13.88;;;;;;;4.25;85.34;103464.75;5050495;28;20025;-79
2022/01/23 05:42:13;;;;;;;24.08;14.48;;;;;;;4.25;85.26;103457.03;5052233;28;20364;-79
2022/01/23 05:44:40;;;;;;;24.50;13.77;;;;;;;4.26;85.08;103461.38;5052277;28;20017;-79
2022/01/23 05:47:07;;;;;;;24.70;14.65;;;;;;;4.29;84.77;103468.34;5051744;28;20039;-79
2022/01/23 05:49:33;;;;;;;24.50;13.38;;;;;;;4.28;85.15;103458.84;5051537;28;20071;-79
2022/01/23 05:51:59;;;;;;;23.95;13.02;;;;;;;4.29;85.16;103465.75;5050286;28;20207;-79
2022/01/23 05:54:24;;;;;;;25.67;14.38;;;;;;;4.28;85.61;103464.84;5051481;28;20230;-79
2022/01/23 05:56:50;;;;;;;28.17;13.98;;;;;;;4.28;85.55;103464.84;5050998;28;20029;-79
2022/01/23 05:59:16;;;;;;;24.83;13.57;;;;;;;4.27;85.42;103457.94;5050936;28;20025;-79
2022/01/23 06:01:42;;;;;;;26.30;14.60;;;;;;;4.28;85.48;103456.25;5048378;28;20028;-79
2022/01/23 06:04:08;;;;;;;28.67;14.45;;;;;;;4.29;85.50;103453.75;5048841;28;20021;-79
2022/01/23 06:06:33;;;;;;;27.40;14.45;;;;;;;4.28;85.39;103454.56;5049862;28;20037;-79
2022/01/23 06:08:58;;;;;;;29.58;14.82;;;;;;;4.30;85.38;103452.94;5052506;28;20463;-79
2022/01/23 06:11:23;;;;;;;27.05;14.60;;;;;;;4.30;85.01;103458.06;5050097;28;20028;-79
2022/01/23 06:13:49;;;;;;;27.55;14.27;;;;;;;4.30;85.32;103460.66;5051175;28;20035;-79
2022/01/23 06:16:14;;;;;;;26.15;15.15;;;;;;;4.31;85.21;103459.84;5051010;28;20017;-82
2022/01/23 06:18:41;;;;;;;28.10;14.68;;;;;;;4.32;85.12;103469.34;5051673;28;20480;-79
2022/01/23 06:21:07;;;;;;;27.38;14.40;;;;;;;4.32;85.30;103461.59;5050133;28;20017;-79
2022/01/23 06:23:33;;;;;;;24.77;14.25;;;;;;;4.33;85.27;103468.53;5051082;28;20557;-79
2022/01/23 06:25:59;;;;;;;26.55;14.32;;;;;;;4.31;85.20;103470.16;5050676;28;20031;-79
2022/01/23 06:29:01;;;;;;;26.42;14.52;;;;;;;4.32;85.33;103477.06;5051068;28;20016;-79
2022/01/23 06:31:26;;;;;;;24.42;13.52;;;;;;;4.32;85.32;103466.75;5049464;28;20016;-79
2022/01/23 06:33:52;;;;;;;24.45;13.90;;;;;;;4.33;85.43;103468.53;5050303;28;20543;-79
2022/01/23 06:36:17;;;;;;;28.20;14.20;;;;;;;4.33;85.40;103478.84;5050627;28;20028;-79
2022/01/23 06:38:42;;;;;;;25.23;14.35;;;;;;;4.34;85.52;103479.72;5050291;28;20029;-79
2022/01/23 06:41:08;;;;;;;25.70;14.45;;;;;;;4.34;85.55;103461.69;5048089;28;20017;-79
2022/01/23 06:43:33;;;;;;;27.88;14.45;;;;;;;4.33;85.72;103472.81;5050481;28;20035;-79
2022/01/23 06:45:58;;;;;;;28.08;15.07;;;;;;;4.31;85.43;103472.72;5051596;28;20039;-79
2022/01/23 06:48:24;;;;;;;25.27;14.15;;;;;;;4.29;85.75;103476.94;5051345;28;20017;-79
2022/01/23 06:50:50;;;;;;;24.73;13.70;;;;;;;4.29;85.90;103476.94;5048781;28;20028;-79
2022/01/23 06:53:15;;;;;;;28.73;14.48;;;;;;;4.29;85.70;103486.38;5049610;28;20017;-79
2022/01/23 06:55:40;;;;;;;27.50;13.98;;;;;;;4.30;85.65;103483.84;5050086;28;20029;-79
2022/01/23 06:58:06;;;;;;;25.20;13.98;;;;;;;4.32;85.92;103486.50;5047945;28;20028;-79
2022/01/23 07:00:33;;;;;;;27.80;13.35;;;;;;;4.32;85.95;103494.25;5050537;28;20021;-79
2022/01/23 07:02:58;;;;;;;22.20;12.82;;;;;;;4.32;86.07;103486.50;5047165;28;20085;-79
2022/01/23 07:05:24;;;;;;;24.60;13.68;;;;;;;4.31;85.69;103490.78;5050873;28;20116;-79
2022/01/23 07:07:49;;;;;;;25.25;14.32;;;;;;;4.33;86.09;103499.44;5049486;28;20110;-79
2022/01/23 07:10:16;;;;;;;24.90;14.70;;;;;;;4.34;85.47;103497.78;5050870;28;20021;-79
2022/01/23 07:12:42;;;;;;;26.30;14.20;;;;;;;4.33;85.74;103491.72;5049875;28;20446;-79
2022/01/23 07:15:08;;;;;;;27.70;14.90;;;;;;;4.33;85.95;103502.03;5050984;28;20024;-79
2022/01/23 07:17:41;;;;;;;28.15;14.68;;;;;;;4.33;85.74;103504.59;5049494;28;20050;-79
2022/01/23 07:20:07;;;;;;;27.70;14.65;;;;;;;4.33;85.98;103504.59;5048714;28;20112;-79
2022/01/23 07:22:33;;;;;;;27.00;15.48;;;;;;;4.34;85.49;103508.09;5049188;28;20096;-79
2022/01/23 07:25:01;;;;;;;30.13;15.20;;;;;;;4.35;85.37;103517.56;5049913;28;20029;-79
2022/01/23 07:27:29;;;;;;;26.30;15.05;;;;;;;4.33;85.73;103504.59;5049520;28;20130;-79
2022/01/23 07:29:55;;;;;;;25.90;14.73;;;;;;;4.34;85.39;103516.69;5050247;28;20027;-79
2022/01/23 07:32:20;;;;;;;27.08;14.93;;;;;;;4.36;85.67;103524.47;5050362;28;20092;-79
2022/01/23 07:34:45;;;;;;;24.52;13.85;;;;;;;4.36;86.02;103525.38;5048996;28;20113;-79
2022/01/23 07:37:12;;;;;;;26.33;14.40;;;;;;;4.36;85.63;103524.47;5049363;28;20025;-79
2022/01/23 07:39:38;;;;;;;23.48;13.52;;;;;;;4.35;85.68;103533.91;5050629;28;20036;-79
2022/01/23 07:42:04;;;;;;;26.83;14.40;;;;;;;4.34;86.03;103527.00;5049587;28;20032;-79
2022/01/23 07:44:29;;;;;;;28.63;15.55;;;;;;;4.36;85.96;103537.34;5050452;28;20024;-79
2022/01/23 07:46:54;;;;;;;25.67;15.20;;;;;;;4.37;85.64;103537.44;5050730;28;20100;-79
2022/01/23 07:49:20;;;;;;;29.67;14.45;;;;;;;4.38;85.76;103540.88;5050311;28;20028;-79
2022/01/23 07:51:45;;;;;;;29.00;15.68;;;;;;;4.39;85.82;103546.13;5049166;28;20443;-79
2022/01/23 07:54:10;;;;;;;29.25;15.20;;;;;;;4.40;85.80;103537.56;5050260;28;20538;-79
2022/01/23 07:56:38;;;;;;;28.13;14.88;;;;;;;4.43;85.42;103533.38;5050215;28;20361;-79
2022/01/23 07:59:04;;;;;;;29.58;15.85;;;;;;;4.44;85.46;103536.00;5047838;28;20105;-79
2022/01/23 08:01:31;;;;;;;31.88;16.08;;;;;;;4.47;85.43;103542.97;5048033;28;20101;-79
2022/01/23 08:03:56;;;;;;;33.28;16.63;;;;;;;4.47;85.02;103545.56;5058928;28;20025;-79
2022/01/23 08:06:28;;;;;;;28.73;15.95;;;;;;;4.48;85.44;103548.22;5057383;28;20043;-78
2022/01/23 08:08:55;;;;;;;28.48;15.63;;;;;;;4.50;85.37;103548.28;5062162;28;20278;-78
2022/01/23 08:11:22;;;;;;;29.08;16.27;;;;;;;4.49;84.78;103543.94;5060634;28;20438;-78
2022/01/23 08:13:47;;;;;;;29.50;16.48;;;;;;;4.51;84.70;103544.88;5056224;28;20333;-78
2022/01/23 08:16:12;;;;;;;30.10;15.88;;;;;;;4.51;84.88;103550.03;5059317;28;20039;-78
2022/01/23 08:18:38;;;;;;;26.75;15.35;;;;;;;4.51;85.04;103555.19;5060784;28;20107;-78
2022/01/23 08:21:03;;;;;;;30.17;16.42;;;;;;;4.52;85.15;103549.22;5061498;28;20020;-78
2022/01/23 08:23:28;;;;;;;33.65;16.42;;;;;;;4.54;85.08;103545.88;5059152;28;20551;-78
2022/01/23 08:25:54;;;;;;;31.25;16.25;;;;;;;4.56;84.52;103553.72;5058519;28;20033;-78
2022/01/23 08:28:19;;;;;;;33.13;17.08;;;;;;;4.57;84.92;103552.91;5059745;28;20028;-78
2022/01/23 08:30:45;;;;;;;31.20;16.30;;;;;;;4.58;84.97;103553.75;5060440;28;20029;-78
2022/01/23 08:33:10;;;;;;;32.33;17.00;;;;;;;4.60;84.53;103560.75;5059332;28;20043;-78
2022/01/23 08:35:35;;;;;;;30.20;16.35;;;;;;;4.61;84.39;103554.75;5059967;28;20112;-78
2022/01/23 08:38:01;;;;;;;32.90;16.83;;;;;;;4.62;84.17;103553.94;5057455;28;20082;-78
2022/01/23 08:43:08;;;;;;;29.20;16.08;;;;;;;4.66;84.39;103568.75;5058486;28;20041;-77
2022/01/23 08:45:33;;;;;;;29.25;16.23;;;;;;;4.67;84.64;103567.94;5059466;28;20119;-78
2022/01/23 08:47:59;;;;;;;36.33;17.85;;;;;;;4.70;84.20;103572.31;5060264;28;20112;-78
2022/01/23 08:50:25;;;;;;;31.33;17.42;;;;;;;4.68;84.11;103569.69;5060792;28;20115;-78
2022/01/23 08:52:51;;;;;;;30.23;16.70;;;;;;;4.70;84.49;103569.75;5060392;28;20021;-78
2022/01/23 08:55:16;;;;;;;34.90;16.85;;;;;;;4.71;84.63;103575.00;5059865;28;20562;-78
2022/01/23 08:57:41;;;;;;;32.47;17.23;;;;;;;4.71;84.32;103580.16;5060448;28;20031;-78
2022/01/23 09:00:07;;;;;;;33.03;17.17;;;;;;;4.73;84.63;103576.75;5060729;28;20028;-78
2022/01/23 09:02:32;;;;;;;32.00;17.52;;;;;;;4.74;84.73;103574.22;5060252;28;20024;-78
2022/01/23 09:05:00;;;;;;;31.45;17.30;;;;;;;4.75;85.11;103575.13;5058409;28;20052;-79
2022/01/23 09:07:25;;;;;;;31.10;16.92;;;;;;;4.77;85.31;103578.66;5061520;28;20051;-78
2022/01/23 09:09:50;;;;;;;30.80;17.08;;;;;;;4.78;84.94;103577.84;5059590;28;20444;-78
2022/01/23 09:12:41;;;;;;;32.40;17.73;;;;;;;4.80;84.97;103583.91;5057803;28;20028;-78
2022/01/23 09:15:07;;;;;;;37.47;18.03;;;;;;;4.81;84.64;103565.06;5060468;28;20027;-78
2022/01/23 09:17:33;;;;;;;32.10;16.70;;;;;;;4.81;84.58;103575.38;5061215;28;20031;-78
2022/01/23 09:19:59;;;;;;;33.33;18.02;;;;;;;4.83;84.77;103574.63;5056746;28;20037;-81
2022/01/23 09:22:28;;;;;;;34.95;18.80;;;;;;;4.84;84.51;103565.19;5058704;28;20735;-79
2022/01/23 09:24:55;;;;;;;33.40;18.60;;;;;;;4.86;84.53;103569.63;5053091;28;20025;-79
2022/01/23 09:27:20;;;;;;;35.83;18.35;;;;;;;4.87;84.56;103575.63;5054657;28;20048;-79
2022/01/23 09:29:49;;;;;;;34.25;18.42;;;;;;;4.91;84.79;103574.97;5053329;28;20098;-79
2022/01/23 09:32:18;;;;;;;33.72;17.88;;;;;;;4.92;84.59;103574.16;5059653;28;20033;-79
2022/01/23 09:34:44;;;;;;;36.10;18.52;;;;;;;4.94;84.49;103572.53;5057276;28;20749;-79
2022/01/23 09:37:13;;;;;;;34.13;18.02;;;;;;;4.97;84.91;103577.78;5057757;28;20024;-79
2022/01/23 09:39:40;;;;;;;32.85;18.35;;;;;;;4.99;83.83;103576.16;5061197;28;20193;-78
2022/01/23 09:42:12;;;;;;;34.28;17.77;;;;;;;5.01;83.83;103574.50;5057472;28;20094;-79
2022/01/23 09:44:42;;;;;;;36.75;18.55;;;;;;;5.03;83.82;103576.28;5060634;28;20386;-79
2022/01/23 09:47:11;;;;;;;36.00;18.52;;;;;;;5.04;84.10;103590.94;5058978;28;20204;-79
2022/01/23 09:49:37;;;;;;;33.42;18.50;;;;;;;5.06;83.61;103589.31;5059928;28;20032;-79
2022/01/23 09:52:04;;;;;;;36.72;18.88;;;;;;;5.08;84.13;103590.28;5054445;28;20021;-79
2022/01/23 09:54:31;;;;;;;35.50;18.67;;;;;;;5.11;83.92;103590.41;5059027;28;20040;-79
2022/01/23 09:57:05;;;;;;;33.42;18.45;;;;;;;5.14;83.83;103595.66;5057948;28;20033;-79
2022/01/23 09:59:31;;;;;;;35.25;18.80;;;;;;;5.15;83.97;103592.25;5074081;28;20032;-79
2022/01/23 10:01:57;;;;;;;32.75;18.35;;;;;;;5.17;83.51;103590.63;5057816;28;20028;-79
2022/01/23 10:04:25;;;;;;;34.53;18.30;;;;;;;5.22;84.02;103595.97;5060129;28;20027;-79
2022/01/23 10:06:52;;;;;;;37.15;19.25;;;;;;;5.24;83.77;103600.41;5060052;28;20024;-79
2022/01/23 10:09:20;;;;;;;33.10;18.35;;;;;;;5.27;83.35;103592.78;5059007;28;20131;-79
2022/01/23 10:11:47;;;;;;;34.72;18.42;;;;;;;5.30;83.42;103602.34;5059828;28;20024;-79
2022/01/23 10:14:14;;;;;;;35.35;19.77;;;;;;;5.32;83.64;103591.25;5059919;28;20037;-79
2022/01/23 10:16:39;;;;;;;35.13;19.33;;;;;;;5.36;83.82;103593.97;5057832;28;20036;-78
2022/01/23 10:19:05;;;;;;;36.72;18.98;;;;;;;5.38;83.20;103589.75;5057854;28;20060;-79
2022/01/23 10:21:35;;;;;;;37.47;19.30;;;;;;;5.39;83.46;103588.94;5059093;28;20547;-79
2022/01/23 10:24:01;;;;;;;38.13;19.40;;;;;;;5.42;83.45;103591.66;5055833;28;20032;-79
2022/01/23 10:26:46;;;;;;;37.70;19.27;;;;;;;5.46;83.48;103588.38;5057146;28;20025;-80
2022/01/23 10:29:12;;;;;;;36.17;18.48;;;;;;;5.49;83.38;103588.47;5055157;28;20442;-80
2022/01/23 10:32:14;;;;;;;36.40;20.08;;;;;;;5.55;83.13;103587.88;5056872;28;20031;-80
2022/01/23 10:34:50;;;;;;;37.17;20.02;;;;;;;5.57;83.38;103592.25;5057768;28;20033;-79
2022/01/23 10:37:34;;;;;;;36.92;19.05;;;;;;;5.61;83.67;103588.09;5056803;28;20032;-79
2022/01/23 10:40:26;;;;;;;37.53;20.65;;;;;;;5.64;83.31;103587.34;5059097;28;20173;-78
2022/01/23 10:46:34;;;;;;;32.63;18.00;;;;;;;5.68;83.09;103591.78;5047797;28;20044;-79
2022/01/23 10:48:36;;;;;;;36.08;19.08;;;;;;;5.71;83.00;103585.06;5056637;28;20525;-79
2022/01/23 10:51:26;;;;;;;35.20;18.73;;;;;;;5.75;83.25;103593.81;5052088;28;20484;-80
2022/01/23 10:54:09;;;;;;;42.30;19.73;;;;;;;5.76;82.89;103592.97;5054959;28;20483;-79
2022/01/23 10:56:54;;;;;;;39.13;19.80;;;;;;;5.78;83.05;103584.47;5055462;28;20025;-79
2022/01/23 10:59:19;;;;;;;37.42;19.63;;;;;;;5.82;83.36;103571.66;5052150;28;20036;-80
2022/01/23 11:02:04;;;;;;;36.42;19.48;;;;;;;5.86;83.21;103569.25;5052001;28;20024;-79
2022/01/23 11:04:34;;;;;;;36.88;19.38;;;;;;;5.87;82.83;103573.59;5054512;28;20024;-79
2022/01/23 11:07:01;;;;;;;35.47;19.30;;;;;;;5.89;82.79;103574.53;5052629;28;20094;-79
2022/01/23 11:09:31;;;;;;;36.00;19.02;;;;;;;5.92;82.78;103579.84;5050589;28;20020;-79
2022/01/23 11:12:13;;;;;;;35.50;18.15;;;;;;;5.93;83.04;103576.44;5053207;28;20480;-80
2022/01/23 11:17:25;;;;;;;35.67;18.80;;;;;;;5.96;82.82;103569.63;5058965;28;20051;-79
2022/01/23 11:19:59;;;;;;;37.85;18.80;;;;;;;5.99;82.63;103570.59;5056750;28;20037;-79
2022/01/23 11:22:31;;;;;;;36.83;19.27;;;;;;;6.00;82.40;103566.34;5055939;28;20028;-79
2022/01/23 11:24:57;;;;;;;;;;;;;;;6.08;83.11;103567.50;5057890;28;20040;-79
2022/01/23 11:27:23;;;;;;;35.40;17.13;;;;;;;6.06;82.22;103569.16;5054064;28;20005;-79
2022/01/23 11:30:00;;;;;;;35.47;17.85;;;;;;;6.07;82.24;103558.00;5051816;28;20387;-78
2022/01/23 11:32:30;;;;;;;35.05;17.58;;;;;;;6.09;82.16;103561.53;5052373;28;20134;-79
2022/01/23 11:35:05;;;;;;;37.50;19.05;;;;;;;6.10;82.40;103552.94;5058170;28;20036;-81
2022/01/23 11:37:30;;;;;;;35.67;18.75;;;;;;;6.12;82.13;103556.47;5059697;28;20036;-79
2022/01/23 11:40:01;;;;;;;36.15;18.77;;;;;;;6.13;82.37;103560.81;5061700;28;20055;-80
2022/01/23 11:53:49;;;;;;;34.85;17.92;;;;;;;6.23;82.34;103543.94;5057488;28;20097;-79
2022/01/23 11:56:43;;;;;;;34.35;17.92;;;;;;;6.28;82.32;103541.53;5057731;28;20033;-82
2022/01/23 11:59:28;;;;;;;32.42;17.17;;;;;;;6.26;82.51;103532.81;5057337;28;20070;-79
2022/01/23 12:02:12;;;;;;;35.30;18.35;;;;;;;6.28;82.52;103541.53;5058943;28;20063;-79
2022/01/23 12:04:43;;;;;;;32.40;17.52;;;;;;;6.27;81.97;103540.63;5055118;28;20077;-80
2022/01/23 12:07:10;;;;;;;33.13;17.95;;;;;;;6.27;81.75;103543.22;5054092;28;20033;-79
2022/01/23 12:09:35;;;;;;;33.67;17.35;;;;;;;6.30;81.68;103547.63;5055207;28;20037;-80
2022/01/23 12:12:09;;;;;;;33.22;18.33;;;;;;;6.31;81.91;103536.47;5048007;28;20428;-79
2022/01/23 12:17:07;;;;;;;32.15;17.48;;;;;;;6.33;81.81;103533.09;5054302;28;20036;-80
2022/01/23 12:19:45;;;;;;;33.22;17.40;;;;;;;6.36;81.76;103532.31;5054465;28;20052;-81
2022/01/23 12:22:30;;;;;;;32.38;17.13;;;;;;;6.36;81.50;103530.63;5059138;28;20101;-77
2022/01/23 12:24:58;;;;;;;32.80;17.25;;;;;;;6.36;81.58;103524.56;5057159;28;20352;-78
2022/01/23 12:27:27;;;;;;;33.80;17.33;;;;;;;6.38;81.68;103522.91;5056937;28;20048;-78
2022/01/23 12:29:54;;;;;;;32.88;17.92;;;;;;;6.36;82.03;103519.38;5059350;28;20017;-78
2022/01/23 12:32:26;;;;;;;31.92;17.23;;;;;;;6.34;81.85;103510.69;5059148;28;20033;-79
2022/01/23 12:34:57;;;;;;;34.50;18.40;;;;;;;6.33;81.49;103521.84;5057141;28;20484;-79
2022/01/23 12:37:24;;;;;;;35.88;18.60;;;;;;;6.31;81.95;103520.94;5056271;28;20024;-79
2022/01/23 12:40:28;;;;;;;33.50;18.02;;;;;;;6.33;82.15;103519.28;5058536;28;20077;-78
2022/01/23 12:43:21;;;;;;;34.40;17.80;;;;;;;6.34;82.09;103515.84;5056443;28;20140;-80
2022/01/23 12:45:54;;;;;;;34.85;17.98;;;;;;;6.34;82.30;103505.53;5059126;28;20135;-79
2022/01/23 12:48:26;;;;;;;36.40;18.80;;;;;;;6.33;82.56;103507.25;5057388;28;20480;-79
2022/01/23 12:50:57;;;;;;;37.88;19.15;;;;;;;6.35;82.37;103507.28;5062296;28;20067;-79
2022/01/23 12:53:34;;;;;;;36.08;19.48;;;;;;;6.35;82.66;103507.28;5060155;28;20115;-79
2022/01/23 12:56:06;;;;;;;35.65;19.05;;;;;;;6.32;82.68;103510.66;5058216;28;20372;-79
2022/01/23 12:58:34;;;;;;;35.88;17.98;;;;;;;6.30;82.03;103504.53;5060814;28;20040;-79
2022/01/23 13:01:03;;;;;;;35.42;18.38;;;;;;;6.29;82.46;103501.91;5060941;28;20086;-79
2022/01/23 13:03:29;;;;;;;34.70;18.83;;;;;;;6.29;82.29;103501.91;5060192;28;20043;-79
2022/01/23 13:05:54;;;;;;;36.17;18.50;;;;;;;6.28;82.39;103495.84;5061867;28;20032;-79
2022/01/23 13:08:31;;;;;;;33.85;17.85;;;;;;;6.29;82.61;103491.56;5058294;28;20547;-79
2022/01/23 13:27:12;;;;;;;35.45;18.40;;;;;;;6.38;82.26;103491.88;5059851;28;20597;-79
2022/01/23 13:32:52;;;;;;;35.65;17.92;;;;;;;6.40;82.42;103484.19;5020411;28;20044;-79
2022/01/23 13:35:17;;;;;;;36.15;18.33;;;;;;;6.40;82.20;103490.22;5059455;28;20447;-80
2022/01/23 13:37:45;;;;;;;34.22;18.20;;;;;;;6.40;82.66;103479.88;5056714;28;20041;-80
2022/01/23 13:40:23;;;;;;;36.70;18.85;;;;;;;6.43;81.81;103484.28;5056099;28;20028;-80
2022/01/23 13:51:19;;;;;;;33.80;17.52;;;;;;;6.42;81.82;103488.59;5062638;28;20483;-80
2022/01/23 13:59:28;;;;;;;33.17;17.00;;;;;;;6.41;81.33;103481.66;5051345;28;20090;-81
2022/01/23 14:04:26;;;;;;;36.65;19.42;;;;;;;6.42;81.73;103473.06;5056238;28;20159;-82
2022/01/23 14:06:52;;;;;;;34.40;17.73;;;;;;;6.43;81.64;103473.94;5056090;28;20032;-81
2022/01/23 14:09:18;;;;;;;36.53;18.85;;;;;;;6.43;82.03;103472.25;5061253;28;20025;-81
2022/01/23 14:11:45;;;;;;;34.38;17.85;;;;;;;6.41;81.93;103471.31;5050242;28;20450;-81
2022/01/23 14:14:24;;;;;;;33.15;17.17;;;;;;;6.38;81.93;103461.75;5054624;28;20035;-80
2022/01/23 14:16:52;;;;;;;32.33;17.52;;;;;;;6.36;81.67;103462.50;5056514;28;20391;-81
2022/01/23 14:19:22;;;;;;;34.63;17.75;;;;;;;6.34;81.55;103461.56;5053810;28;20044;-81
2022/01/23 14:21:50;;;;;;;35.42;17.13;;;;;;;6.32;81.73;103465.84;5054311;28;21333;-80
2022/01/23 14:24:28;;;;;;;30.95;17.63;;;;;;;6.30;81.48;103465.75;5054800;28;20119;-81
2022/01/23 14:27:08;;;;;;;32.75;17.27;;;;;;;6.29;81.71;103469.16;5055099;28;20059;-81
2022/01/23 14:29:54;;;;;;;33.22;17.23;;;;;;;6.30;81.96;103473.53;5056393;28;20048;-81
2022/01/23 14:32:33;;;;;;;31.63;17.52;;;;;;;6.29;81.71;103476.06;5052771;28;20048;-80
2022/01/23 14:35:07;;;;;;;32.10;17.23;;;;;;;6.29;81.28;103476.94;5061816;28;20032;-81
2022/01/23 14:37:33;;;;;;;42.67;21.52;;;;;;;6.30;82.16;103477.81;5052568;28;20127;-81
2022/01/23 14:40:23;;;;;;;36.90;18.60;;;;;;;6.30;82.09;103475.25;5052575;28;20070;-81
2022/01/23 14:43:10;;;;;;;38.70;18.17;;;;;;;6.28;82.06;103490.69;5057848;28;20028;-82
2022/01/23 14:45:47;;;;;;;32.92;17.48;;;;;;;6.25;82.31;103484.53;5052458;28;20040;-81
2022/01/23 14:48:15;;;;;;;33.70;17.75;;;;;;;6.22;82.49;103486.19;5054451;28;20033;-81